sensor_id;sensor_type;location;lat;lon;timestamp;P1;durP1;ratioP1;P2;durP2;ratioP2
40252;SDS011;25972;51.854;4.534;2023-02-18T00:02:04;5.13;;;2.58;;
40252;SDS011;25972;51.854;4.534;2023-02-18T00:04:30;11.45;;;4.97;;
40252;SDS011;25972;51.854;4.534;2023-02-18T00:06:56;19.65;;;7.47;;
40252;SDS011;25972;51.854;4.534;2023-02-18T00:09:23;21.48;;;7.03;;
40252;SDS011;25972;51.854;4.534;2023-02-18T00:11:50;23.30;;;9.10;;
40252;SDS011;25972;51.854;4.534;2023-02-18T00:14:17;15.13;;;6.10;;
40252;SDS011;25972;51.854;4.534;2023-02-18T00:16:43;17.55;;;5.85;;
40252;SDS011;25972;51.854;4.534;2023-02-18T00:19:19;25.30;;;8.05;;
40252;SDS011;25972;51.854;4.534;2023-02-18T00:21:45;18.75;;;7.25;;
40252;SDS011;25972;51.854;4.534;2023-02-18T00:24:13;15.20;;;5.93;;
40252;SDS011;25972;51.854;4.534;2023-02-18T00:26:40;27.73;;;10.30;;
40252;SDS011;25972;51.854;4.534;2023-02-18T00:29:06;23.25;;;8.02;;
40252;SDS011;25972;51.854;4.534;2023-02-18T00:31:34;30.25;;;10.70;;
40252;SDS011;25972;51.854;4.534;2023-02-18T00:34:01;14.75;;;5.72;;
40252;SDS011;25972;51.854;4.534;2023-02-18T00:36:29;28.92;;;10.68;;
40252;SDS011;25972;51.854;4.534;2023-02-18T00:38:57;34.38;;;12.23;;
40252;SDS011;25972;51.854;4.534;2023-02-18T00:41:25;19.02;;;7.10;;
40252;SDS011;25972;51.854;4.534;2023-02-18T00:43:52;22.25;;;8.10;;
40252;SDS011;25972;51.854;4.534;2023-02-18T00:46:22;32.35;;;11.52;;
40252;SDS011;25972;51.854;4.534;2023-02-18T00:48:48;21.58;;;8.60;;
40252;SDS011;25972;51.854;4.534;2023-02-18T00:51:15;31.42;;;11.82;;
40252;SDS011;25972;51.854;4.534;2023-02-18T00:53:41;21.65;;;9.65;;
40252;SDS011;25972;51.854;4.534;2023-02-18T00:56:07;10.35;;;5.25;;
40252;SDS011;25972;51.854;4.534;2023-02-18T00:58:33;30.42;;;11.07;;
40252;SDS011;25972;51.854;4.534;2023-02-18T01:01:03;14.93;;;6.13;;
40252;SDS011;25972;51.854;4.534;2023-02-18T01:03:30;30.15;;;10.15;;
40252;SDS011;25972;51.854;4.534;2023-02-18T01:05:59;10.98;;;4.90;;
40252;SDS011;25972;51.854;4.534;2023-02-18T01:08:26;37.80;;;13.25;;
40252;SDS011;25972;51.854;4.534;2023-02-18T01:10:52;18.30;;;8.13;;
40252;SDS011;25972;51.854;4.534;2023-02-18T01:13:20;29.60;;;12.00;;
40252;SDS011;25972;51.854;4.534;2023-02-18T01:15:46;28.98;;;11.80;;
40252;SDS011;25972;51.854;4.534;2023-02-18T01:18:12;20.67;;;5.93;;
40252;SDS011;25972;51.854;4.534;2023-02-18T01:20:39;22.15;;;7.60;;
40252;SDS011;25972;51.854;4.534;2023-02-18T01:23:07;27.25;;;10.52;;
40252;SDS011;25972;51.854;4.534;2023-02-18T01:25:33;16.27;;;6.10;;
40252;SDS011;25972;51.854;4.534;2023-02-18T01:28:00;18.92;;;6.40;;
40252;SDS011;25972;51.854;4.534;2023-02-18T01:30:28;21.08;;;7.30;;
40252;SDS011;25972;51.854;4.534;2023-02-18T01:32:54;24.50;;;9.25;;
40252;SDS011;25972;51.854;4.534;2023-02-18T01:35:21;28.75;;;10.23;;
40252;SDS011;25972;51.854;4.534;2023-02-18T01:37:48;32.90;;;10.73;;
40252;SDS011;25972;51.854;4.534;2023-02-18T01:40:17;24.23;;;8.07;;
40252;SDS011;25972;51.854;4.534;2023-02-18T01:42:46;19.75;;;7.47;;
40252;SDS011;25972;51.854;4.534;2023-02-18T01:48:08;35.80;;;12.70;;
40252;SDS011;25972;51.854;4.534;2023-02-18T01:50:35;30.08;;;11.90;;
40252;SDS011;25972;51.854;4.534;2023-02-18T01:53:05;20.50;;;7.10;;
40252;SDS011;25972;51.854;4.534;2023-02-18T01:55:32;33.60;;;10.05;;
40252;SDS011;25972;51.854;4.534;2023-02-18T01:57:59;25.20;;;8.57;;
40252;SDS011;25972;51.854;4.534;2023-02-18T02:00:27;41.92;;;13.52;;
40252;SDS011;25972;51.854;4.534;2023-02-18T02:02:55;31.60;;;8.85;;
40252;SDS011;25972;51.854;4.534;2023-02-18T02:05:29;31.10;;;10.20;;
40252;SDS011;25972;51.854;4.534;2023-02-18T02:08:20;13.05;;;4.85;;
40252;SDS011;25972;51.854;4.534;2023-02-18T02:11:24;31.90;;;11.27;;
40252;SDS011;25972;51.854;4.534;2023-02-18T02:14:13;34.35;;;11.40;;
40252;SDS011;25972;51.854;4.534;2023-02-18T02:17:00;44.63;;;12.90;;
40252;SDS011;25972;51.854;4.534;2023-02-18T02:31:36;15.55;;;5.20;;
40252;SDS011;25972;51.854;4.534;2023-02-18T02:35:04;24.83;;;7.20;;
40252;SDS011;25972;51.854;4.534;2023-02-18T02:43:05;22.30;;;7.55;;
40252;SDS011;25972;51.854;4.534;2023-02-18T02:45:54;24.10;;;8.15;;
40252;SDS011;25972;51.854;4.534;2023-02-18T02:48:36;26.30;;;8.80;;
40252;SDS011;25972;51.854;4.534;2023-02-18T02:53:34;27.20;;;8.65;;
40252;SDS011;25972;51.854;4.534;2023-02-18T02:56:02;24.98;;;9.20;;
40252;SDS011;25972;51.854;4.534;2023-02-18T02:58:28;15.30;;;5.70;;
40252;SDS011;25972;51.854;4.534;2023-02-18T03:17:34;26.40;;;10.45;;
40252;SDS011;25972;51.854;4.534;2023-02-18T03:20:22;11.07;;;4.82;;
40252;SDS011;25972;51.854;4.534;2023-02-18T03:22:52;20.50;;;9.02;;
40252;SDS011;25972;51.854;4.534;2023-02-18T03:25:20;6.90;;;2.95;;
40252;SDS011;25972;51.854;4.534;2023-02-18T03:27:58;14.73;;;6.00;;
40252;SDS011;25972;51.854;4.534;2023-02-18T03:30:31;19.88;;;7.90;;
40252;SDS011;25972;51.854;4.534;2023-02-18T03:33:04;20.90;;;7.90;;
40252;SDS011;25972;51.854;4.534;2023-02-18T03:35:34;8.38;;;4.10;;
40252;SDS011;25972;51.854;4.534;2023-02-18T03:40:48;20.00;;;7.40;;
40252;SDS011;25972;51.854;4.534;2023-02-18T03:43:14;14.15;;;5.75;;
40252;SDS011;25972;51.854;4.534;2023-02-18T03:45:40;12.40;;;5.72;;
40252;SDS011;25972;51.854;4.534;2023-02-18T03:48:07;8.68;;;3.67;;
40252;SDS011;25972;51.854;4.534;2023-02-18T03:50:33;12.40;;;5.15;;
40252;SDS011;25972;51.854;4.534;2023-02-18T03:52:59;11.57;;;5.07;;
40252;SDS011;25972;51.854;4.534;2023-02-18T03:55:25;14.20;;;4.80;;
40252;SDS011;25972;51.854;4.534;2023-02-18T03:57:51;8.38;;;2.08;;
40252;SDS011;25972;51.854;4.534;2023-02-18T04:00:18;10.93;;;5.00;;
40252;SDS011;25972;51.854;4.534;2023-02-18T04:02:44;10.07;;;3.65;;
40252;SDS011;25972;51.854;4.534;2023-02-18T04:05:10;11.43;;;5.22;;
40252;SDS011;25972;51.854;4.534;2023-02-18T04:07:36;10.65;;;3.97;;
40252;SDS011;25972;51.854;4.534;2023-02-18T04:10:03;10.93;;;4.43;;
40252;SDS011;25972;51.854;4.534;2023-02-18T04:12:29;7.45;;;3.40;;
40252;SDS011;25972;51.854;4.534;2023-02-18T04:14:55;7.22;;;3.17;;
40252;SDS011;25972;51.854;4.534;2023-02-18T04:17:21;9.45;;;3.60;;
40252;SDS011;25972;51.854;4.534;2023-02-18T04:19:47;13.90;;;5.20;;
40252;SDS011;25972;51.854;4.534;2023-02-18T04:22:13;7.28;;;3.38;;
40252;SDS011;25972;51.854;4.534;2023-02-18T04:24:39;10.63;;;4.10;;
40252;SDS011;25972;51.854;4.534;2023-02-18T04:27:05;9.27;;;3.35;;
40252;SDS011;25972;51.854;4.534;2023-02-18T04:29:34;12.75;;;5.30;;
40252;SDS011;25972;51.854;4.534;2023-02-18T04:35:11;9.35;;;4.07;;
40252;SDS011;25972;51.854;4.534;2023-02-18T04:37:37;8.35;;;3.92;;
40252;SDS011;25972;51.854;4.534;2023-02-18T04:40:03;10.52;;;3.72;;
40252;SDS011;25972;51.854;4.534;2023-02-18T04:42:30;5.82;;;2.80;;
40252;SDS011;25972;51.854;4.534;2023-02-18T04:44:56;12.50;;;4.75;;
40252;SDS011;25972;51.854;4.534;2023-02-18T04:47:21;9.05;;;2.60;;
40252;SDS011;25972;51.854;4.534;2023-02-18T04:49:47;10.60;;;4.53;;
40252;SDS011;25972;51.854;4.534;2023-02-18T04:52:13;9.73;;;3.65;;
40252;SDS011;25972;51.854;4.534;2023-02-18T04:54:39;9.63;;;3.75;;
40252;SDS011;25972;51.854;4.534;2023-02-18T04:57:05;10.95;;;5.00;;
40252;SDS011;25972;51.854;4.534;2023-02-18T04:59:31;11.02;;;4.07;;
40252;SDS011;25972;51.854;4.534;2023-02-18T05:01:57;8.18;;;3.53;;
40252;SDS011;25972;51.854;4.534;2023-02-18T05:04:22;9.93;;;4.60;;
40252;SDS011;25972;51.854;4.534;2023-02-18T05:06:48;11.32;;;4.15;;
40252;SDS011;25972;51.854;4.534;2023-02-18T05:09:14;22.85;;;5.55;;
40252;SDS011;25972;51.854;4.534;2023-02-18T05:11:40;8.73;;;3.80;;
40252;SDS011;25972;51.854;4.534;2023-02-18T05:14:07;12.68;;;4.35;;
40252;SDS011;25972;51.854;4.534;2023-02-18T05:16:33;14.02;;;5.57;;
40252;SDS011;25972;51.854;4.534;2023-02-18T05:18:58;14.73;;;4.40;;
40252;SDS011;25972;51.854;4.534;2023-02-18T05:21:24;12.80;;;4.43;;
40252;SDS011;25972;51.854;4.534;2023-02-18T05:23:53;8.68;;;3.42;;
40252;SDS011;25972;51.854;4.534;2023-02-18T05:26:46;15.65;;;6.70;;
40252;SDS011;25972;51.854;4.534;2023-02-18T05:29:12;8.73;;;4.30;;
40252;SDS011;25972;51.854;4.534;2023-02-18T05:31:39;16.17;;;5.97;;
40252;SDS011;25972;51.854;4.534;2023-02-18T05:34:05;14.80;;;4.82;;
40252;SDS011;25972;51.854;4.534;2023-02-18T05:36:31;13.70;;;5.10;;
40252;SDS011;25972;51.854;4.534;2023-02-18T05:38:57;11.18;;;3.97;;
40252;SDS011;25972;51.854;4.534;2023-02-18T05:41:22;9.00;;;3.13;;
40252;SDS011;25972;51.854;4.534;2023-02-18T05:43:48;14.73;;;5.07;;
40252;SDS011;25972;51.854;4.534;2023-02-18T05:46:33;12.48;;;4.80;;
40252;SDS011;25972;51.854;4.534;2023-02-18T05:48:59;20.75;;;5.78;;
40252;SDS011;25972;51.854;4.534;2023-02-18T05:51:24;36.10;;;10.18;;
40252;SDS011;25972;51.854;4.534;2023-02-18T05:53:50;17.90;;;6.63;;
40252;SDS011;25972;51.854;4.534;2023-02-18T05:56:16;20.13;;;6.97;;
40252;SDS011;25972;51.854;4.534;2023-02-18T05:58:45;20.52;;;7.20;;
40252;SDS011;25972;51.854;4.534;2023-02-18T06:01:12;11.65;;;4.38;;
40252;SDS011;25972;51.854;4.534;2023-02-18T06:03:38;20.98;;;5.00;;
40252;SDS011;25972;51.854;4.534;2023-02-18T06:06:04;13.73;;;5.25;;
40252;SDS011;25972;51.854;4.534;2023-02-18T06:08:30;20.00;;;6.88;;
40252;SDS011;25972;51.854;4.534;2023-02-18T06:10:56;20.42;;;7.07;;
40252;SDS011;25972;51.854;4.534;2023-02-18T06:13:22;16.13;;;4.78;;
40252;SDS011;25972;51.854;4.534;2023-02-18T06:15:51;24.15;;;4.80;;
40252;SDS011;25972;51.854;4.534;2023-02-18T06:18:18;17.85;;;5.50;;
40252;SDS011;25972;51.854;4.534;2023-02-18T06:20:45;9.52;;;3.65;;
40252;SDS011;25972;51.854;4.534;2023-02-18T06:23:11;17.45;;;4.68;;
40252;SDS011;25972;51.854;4.534;2023-02-18T06:25:38;18.52;;;4.28;;
40252;SDS011;25972;51.854;4.534;2023-02-18T06:28:32;14.77;;;4.85;;
40252;SDS011;25972;51.854;4.534;2023-02-18T06:30:58;24.65;;;4.15;;
40252;SDS011;25972;51.854;4.534;2023-02-18T06:33:29;26.83;;;3.00;;
40252;SDS011;25972;51.854;4.534;2023-02-18T06:36:11;13.30;;;3.17;;
40252;SDS011;25972;51.854;4.534;2023-02-18T06:38:42;15.07;;;4.50;;
40252;SDS011;25972;51.854;4.534;2023-02-18T06:41:21;24.23;;;5.85;;
40252;SDS011;25972;51.854;4.534;2023-02-18T06:43:57;17.80;;;3.22;;
40252;SDS011;25972;51.854;4.534;2023-02-18T06:46:34;22.15;;;4.97;;
40252;SDS011;25972;51.854;4.534;2023-02-18T06:49:02;23.92;;;3.85;;
40252;SDS011;25972;51.854;4.534;2023-02-18T06:51:28;15.32;;;3.47;;
40252;SDS011;25972;51.854;4.534;2023-02-18T06:54:10;21.50;;;4.70;;
40252;SDS011;25972;51.854;4.534;2023-02-18T06:56:46;9.48;;;3.13;;
40252;SDS011;25972;51.854;4.534;2023-02-18T06:59:12;13.18;;;1.73;;
40252;SDS011;25972;51.854;4.534;2023-02-18T07:01:38;14.18;;;2.80;;
40252;SDS011;25972;51.854;4.534;2023-02-18T07:04:04;24.65;;;4.43;;
40252;SDS011;25972;51.854;4.534;2023-02-18T07:06:30;13.35;;;3.28;;
40252;SDS011;25972;51.854;4.534;2023-02-18T07:08:56;15.90;;;3.97;;
40252;SDS011;25972;51.854;4.534;2023-02-18T07:11:22;10.07;;;2.33;;
40252;SDS011;25972;51.854;4.534;2023-02-18T07:13:50;17.90;;;3.33;;
40252;SDS011;25972;51.854;4.534;2023-02-18T07:16:16;10.90;;;3.05;;
40252;SDS011;25972;51.854;4.534;2023-02-18T07:18:42;8.88;;;2.42;;
40252;SDS011;25972;51.854;4.534;2023-02-18T07:21:08;9.52;;;3.03;;
40252;SDS011;25972;51.854;4.534;2023-02-18T07:23:34;12.23;;;2.33;;
40252;SDS011;25972;51.854;4.534;2023-02-18T07:26:06;13.93;;;3.10;;
40252;SDS011;25972;51.854;4.534;2023-02-18T07:28:34;23.05;;;4.07;;
40252;SDS011;25972;51.854;4.534;2023-02-18T07:31:00;16.92;;;2.00;;
40252;SDS011;25972;51.854;4.534;2023-02-18T07:33:26;20.80;;;3.03;;
40252;SDS011;25972;51.854;4.534;2023-02-18T07:35:53;22.30;;;3.65;;
40252;SDS011;25972;51.854;4.534;2023-02-18T07:38:20;22.15;;;2.67;;
40252;SDS011;25972;51.854;4.534;2023-02-18T07:40:46;15.50;;;2.30;;
40252;SDS011;25972;51.854;4.534;2023-02-18T07:43:12;15.77;;;3.03;;
40252;SDS011;25972;51.854;4.534;2023-02-18T07:45:38;16.00;;;1.95;;
40252;SDS011;25972;51.854;4.534;2023-02-18T07:48:04;12.18;;;3.50;;
40252;SDS011;25972;51.854;4.534;2023-02-18T07:50:30;8.50;;;2.58;;
40252;SDS011;25972;51.854;4.534;2023-02-18T07:52:59;20.02;;;2.58;;
40252;SDS011;25972;51.854;4.534;2023-02-18T07:55:26;8.45;;;1.98;;
40252;SDS011;25972;51.854;4.534;2023-02-18T07:58:15;11.48;;;1.63;;
40252;SDS011;25972;51.854;4.534;2023-02-18T08:00:41;12.40;;;1.75;;
40252;SDS011;25972;51.854;4.534;2023-02-18T08:03:07;8.82;;;2.17;;
40252;SDS011;25972;51.854;4.534;2023-02-18T08:05:33;6.95;;;1.38;;
40252;SDS011;25972;51.854;4.534;2023-02-18T08:07:59;8.63;;;1.77;;
40252;SDS011;25972;51.854;4.534;2023-02-18T08:10:25;18.98;;;2.67;;
40252;SDS011;25972;51.854;4.534;2023-02-18T08:12:51;13.10;;;2.28;;
40252;SDS011;25972;51.854;4.534;2023-02-18T08:15:17;17.58;;;3.72;;
40252;SDS011;25972;51.854;4.534;2023-02-18T08:17:43;11.20;;;2.40;;
40252;SDS011;25972;51.854;4.534;2023-02-18T08:20:08;10.93;;;2.58;;
40252;SDS011;25972;51.854;4.534;2023-02-18T08:22:35;9.43;;;2.42;;
40252;SDS011;25972;51.854;4.534;2023-02-18T08:25:07;15.25;;;2.10;;
40252;SDS011;25972;51.854;4.534;2023-02-18T08:27:33;15.60;;;2.40;;
40252;SDS011;25972;51.854;4.534;2023-02-18T08:29:58;10.80;;;2.20;;
40252;SDS011;25972;51.854;4.534;2023-02-18T08:32:28;6.45;;;1.88;;
40252;SDS011;25972;51.854;4.534;2023-02-18T08:34:54;5.88;;;1.65;;
40252;SDS011;25972;51.854;4.534;2023-02-18T08:37:19;11.60;;;2.15;;
40252;SDS011;25972;51.854;4.534;2023-02-18T08:39:46;10.30;;;2.10;;
40252;SDS011;25972;51.854;4.534;2023-02-18T08:42:12;7.93;;;2.03;;
40252;SDS011;25972;51.854;4.534;2023-02-18T08:44:38;6.38;;;1.85;;
40252;SDS011;25972;51.854;4.534;2023-02-18T08:47:04;7.93;;;1.83;;
40252;SDS011;25972;51.854;4.534;2023-02-18T08:49:30;11.73;;;2.38;;
40252;SDS011;25972;51.854;4.534;2023-02-18T08:51:56;13.15;;;1.88;;
40252;SDS011;25972;51.854;4.534;2023-02-18T08:54:22;14.13;;;3.00;;
40252;SDS011;25972;51.854;4.534;2023-02-18T08:56:48;11.23;;;2.20;;
40252;SDS011;25972;51.854;4.534;2023-02-18T08:59:14;20.15;;;2.97;;
40252;SDS011;25972;51.854;4.534;2023-02-18T09:01:40;6.18;;;1.50;;
40252;SDS011;25972;51.854;4.534;2023-02-18T09:04:06;7.88;;;1.52;;
40252;SDS011;25972;51.854;4.534;2023-02-18T09:06:35;5.43;;;1.90;;
40252;SDS011;25972;51.854;4.534;2023-02-18T09:09:02;13.00;;;2.63;;
40252;SDS011;25972;51.854;4.534;2023-02-18T09:11:28;9.82;;;2.00;;
40252;SDS011;25972;51.854;4.534;2023-02-18T09:13:54;9.77;;;1.85;;
40252;SDS011;25972;51.854;4.534;2023-02-18T09:16:20;9.27;;;1.75;;
40252;SDS011;25972;51.854;4.534;2023-02-18T09:18:47;13.02;;;2.15;;
40252;SDS011;25972;51.854;4.534;2023-02-18T09:21:14;10.50;;;1.50;;
40252;SDS011;25972;51.854;4.534;2023-02-18T09:23:41;11.27;;;2.17;;
40252;SDS011;25972;51.854;4.534;2023-02-18T09:26:08;6.18;;;1.60;;
40252;SDS011;25972;51.854;4.534;2023-02-18T09:28:35;16.17;;;2.72;;
40252;SDS011;25972;51.854;4.534;2023-02-18T09:31:08;14.90;;;2.45;;
40252;SDS011;25972;51.854;4.534;2023-02-18T09:33:40;6.25;;;1.33;;
40252;SDS011;25972;51.854;4.534;2023-02-18T09:36:07;10.80;;;1.98;;
40252;SDS011;25972;51.854;4.534;2023-02-18T09:38:33;8.23;;;2.25;;
40252;SDS011;25972;51.854;4.534;2023-02-18T09:41:00;10.13;;;2.25;;
40252;SDS011;25972;51.854;4.534;2023-02-18T09:43:37;18.67;;;2.53;;
40252;SDS011;25972;51.854;4.534;2023-02-18T09:49:02;9.23;;;1.92;;
40252;SDS011;25972;51.854;4.534;2023-02-18T09:51:31;14.65;;;2.83;;
40252;SDS011;25972;51.854;4.534;2023-02-18T09:53:57;19.35;;;3.35;;
40252;SDS011;25972;51.854;4.534;2023-02-18T09:56:30;13.57;;;2.67;;
40252;SDS011;25972;51.854;4.534;2023-02-18T09:58:58;9.90;;;1.83;;
40252;SDS011;25972;51.854;4.534;2023-02-18T10:01:33;16.08;;;2.33;;
40252;SDS011;25972;51.854;4.534;2023-02-18T10:04:03;6.30;;;1.60;;
40252;SDS011;25972;51.854;4.534;2023-02-18T10:06:49;8.35;;;1.80;;
40252;SDS011;25972;51.854;4.534;2023-02-18T10:09:20;8.10;;;1.75;;
40252;SDS011;25972;51.854;4.534;2023-02-18T10:11:55;8.05;;;2.00;;
40252;SDS011;25972;51.854;4.534;2023-02-18T10:14:24;10.45;;;2.22;;
40252;SDS011;25972;51.854;4.534;2023-02-18T10:16:50;7.93;;;3.25;;
40252;SDS011;25972;51.854;4.534;2023-02-18T10:19:20;15.15;;;3.17;;
40252;SDS011;25972;51.854;4.534;2023-02-18T10:21:50;19.08;;;5.57;;
40252;SDS011;25972;51.854;4.534;2023-02-18T10:24:30;20.88;;;4.75;;
40252;SDS011;25972;51.854;4.534;2023-02-18T10:26:59;20.60;;;3.28;;
40252;SDS011;25972;51.854;4.534;2023-02-18T10:29:27;8.60;;;1.90;;
40252;SDS011;25972;51.854;4.534;2023-02-18T10:31:58;8.30;;;2.08;;
40252;SDS011;25972;51.854;4.534;2023-02-18T10:34:49;11.55;;;2.90;;
40252;SDS011;25972;51.854;4.534;2023-02-18T10:50:44;10.20;;;1.58;;
40252;SDS011;25972;51.854;4.534;2023-02-18T10:55:41;13.02;;;2.72;;
40252;SDS011;25972;51.854;4.534;2023-02-18T11:01:02;15.27;;;2.97;;
40252;SDS011;25972;51.854;4.534;2023-02-18T11:03:46;12.60;;;3.03;;
40252;SDS011;25972;51.854;4.534;2023-02-18T11:09:04;18.40;;;2.80;;
40252;SDS011;25972;51.854;4.534;2023-02-18T11:11:32;12.15;;;2.53;;
40252;SDS011;25972;51.854;4.534;2023-02-18T11:14:05;17.20;;;2.95;;
40252;SDS011;25972;51.854;4.534;2023-02-18T11:19:01;13.70;;;1.58;;
40252;SDS011;25972;51.854;4.534;2023-02-18T11:21:35;11.90;;;2.50;;
40252;SDS011;25972;51.854;4.534;2023-02-18T11:24:07;7.53;;;1.75;;
40252;SDS011;25972;51.854;4.534;2023-02-18T11:26:35;14.77;;;1.92;;
40252;SDS011;25972;51.854;4.534;2023-02-18T11:29:07;14.98;;;3.08;;
40252;SDS011;25972;51.854;4.534;2023-02-18T11:31:46;15.27;;;2.23;;
40252;SDS011;25972;51.854;4.534;2023-02-18T11:34:18;18.15;;;3.53;;
40252;SDS011;25972;51.854;4.534;2023-02-18T11:36:46;27.65;;;2.95;;
40252;SDS011;25972;51.854;4.534;2023-02-18T11:42:11;22.25;;;3.50;;
40252;SDS011;25972;51.854;4.534;2023-02-18T11:44:37;25.80;;;3.47;;
40252;SDS011;25972;51.854;4.534;2023-02-18T11:49:37;10.85;;;2.40;;
40252;SDS011;25972;51.854;4.534;2023-02-18T11:54:38;6.15;;;1.42;;
40252;SDS011;25972;51.854;4.534;2023-02-18T11:57:05;14.60;;;2.55;;
40252;SDS011;25972;51.854;4.534;2023-02-18T11:59:35;19.83;;;3.40;;
40252;SDS011;25972;51.854;4.534;2023-02-18T12:04:42;13.85;;;2.58;;
40252;SDS011;25972;51.854;4.534;2023-02-18T12:07:31;21.88;;;3.60;;
40252;SDS011;25972;51.854;4.534;2023-02-18T12:10:02;13.48;;;2.50;;
40252;SDS011;25972;51.854;4.534;2023-02-18T12:12:30;12.73;;;3.28;;
40252;SDS011;25972;51.854;4.534;2023-02-18T12:15:04;23.15;;;3.45;;
40252;SDS011;25972;51.854;4.534;2023-02-18T12:17:49;17.50;;;2.50;;
40252;SDS011;25972;51.854;4.534;2023-02-18T12:23:37;4.03;;;1.75;;
40252;SDS011;25972;51.854;4.534;2023-02-18T12:31:41;12.40;;;2.22;;
40252;SDS011;25972;51.854;4.534;2023-02-18T12:36:57;5.88;;;1.50;;
40252;SDS011;25972;51.854;4.534;2023-02-18T12:42:35;9.55;;;1.65;;
40252;SDS011;25972;51.854;4.534;2023-02-18T12:53:48;16.77;;;3.35;;
40252;SDS011;25972;51.854;4.534;2023-02-18T13:10:41;27.15;;;3.40;;
40252;SDS011;25972;51.854;4.534;2023-02-18T13:13:10;14.70;;;2.90;;
40252;SDS011;25972;51.854;4.534;2023-02-18T13:21:05;16.80;;;3.97;;
40252;SDS011;25972;51.854;4.534;2023-02-18T13:23:41;18.80;;;3.42;;
40252;SDS011;25972;51.854;4.534;2023-02-18T13:26:16;11.68;;;2.45;;
40252;SDS011;25972;51.854;4.534;2023-02-18T13:28:46;12.00;;;2.28;;
40252;SDS011;25972;51.854;4.534;2023-02-18T13:33:43;19.65;;;2.90;;
40252;SDS011;25972;51.854;4.534;2023-02-18T13:39:14;17.17;;;2.75;;
40252;SDS011;25972;51.854;4.534;2023-02-18T13:41:44;17.48;;;3.20;;
40252;SDS011;25972;51.854;4.534;2023-02-18T13:46:49;21.30;;;3.28;;
40252;SDS011;25972;51.854;4.534;2023-02-18T13:49:20;21.45;;;3.13;;
40252;SDS011;25972;51.854;4.534;2023-02-18T13:51:52;11.57;;;2.25;;
40252;SDS011;25972;51.854;4.534;2023-02-18T13:57:12;22.60;;;3.30;;
40252;SDS011;25972;51.854;4.534;2023-02-18T13:59:54;11.43;;;2.78;;
40252;SDS011;25972;51.854;4.534;2023-02-18T14:02:33;19.63;;;4.28;;
40252;SDS011;25972;51.854;4.534;2023-02-18T14:10:23;14.57;;;2.80;;
40252;SDS011;25972;51.854;4.534;2023-02-18T14:17:48;5.95;;;1.55;;
40252;SDS011;25972;51.854;4.534;2023-02-18T14:20:31;9.82;;;2.53;;
40252;SDS011;25972;51.854;4.534;2023-02-18T14:33:38;10.82;;;2.30;;
40252;SDS011;25972;51.854;4.534;2023-02-18T14:50:09;22.25;;;3.63;;
40252;SDS011;25972;51.854;4.534;2023-02-18T14:52:37;11.95;;;2.53;;
40252;SDS011;25972;51.854;4.534;2023-02-18T14:55:17;15.73;;;2.22;;
40252;SDS011;25972;51.854;4.534;2023-02-18T14:57:52;18.23;;;3.28;;
40252;SDS011;25972;51.854;4.534;2023-02-18T15:00:25;16.58;;;2.38;;
40252;SDS011;25972;51.854;4.534;2023-02-18T15:02:56;12.82;;;2.10;;
40252;SDS011;25972;51.854;4.534;2023-02-18T15:05:25;15.65;;;3.40;;
40252;SDS011;25972;51.854;4.534;2023-02-18T15:08:05;15.60;;;2.70;;
40252;SDS011;25972;51.854;4.534;2023-02-18T15:10:40;17.58;;;2.35;;
40252;SDS011;25972;51.854;4.534;2023-02-18T15:16:03;19.98;;;3.35;;
40252;SDS011;25972;51.854;4.534;2023-02-18T15:18:39;17.90;;;2.90;;
40252;SDS011;25972;51.854;4.534;2023-02-18T15:21:07;16.23;;;3.03;;
40252;SDS011;25972;51.854;4.534;2023-02-18T15:23:45;15.38;;;2.45;;
40252;SDS011;25972;51.854;4.534;2023-02-18T15:26:13;18.60;;;3.00;;
40252;SDS011;25972;51.854;4.534;2023-02-18T15:29:02;18.58;;;2.72;;
40252;SDS011;25972;51.854;4.534;2023-02-18T15:31:31;8.23;;;1.95;;
40252;SDS011;25972;51.854;4.534;2023-02-18T15:34:01;5.85;;;1.63;;
40252;SDS011;25972;51.854;4.534;2023-02-18T15:36:30;13.13;;;2.00;;
40252;SDS011;25972;51.854;4.534;2023-02-18T15:38:56;18.42;;;2.63;;
40252;SDS011;25972;51.854;4.534;2023-02-18T15:41:22;21.63;;;3.63;;
40252;SDS011;25972;51.854;4.534;2023-02-18T15:43:55;12.85;;;2.05;;
40252;SDS011;25972;51.854;4.534;2023-02-18T15:46:26;17.35;;;2.35;;
40252;SDS011;25972;51.854;4.534;2023-02-18T15:48:52;24.95;;;3.70;;
40252;SDS011;25972;51.854;4.534;2023-02-18T15:51:21;24.40;;;3.45;;
40252;SDS011;25972;51.854;4.534;2023-02-18T15:53:51;23.38;;;2.92;;
40252;SDS011;25972;51.854;4.534;2023-02-18T15:56:25;19.40;;;3.75;;
40252;SDS011;25972;51.854;4.534;2023-02-18T16:01:52;13.27;;;2.22;;
40252;SDS011;25972;51.854;4.534;2023-02-18T16:04:21;31.17;;;4.32;;
40252;SDS011;25972;51.854;4.534;2023-02-18T16:06:49;14.63;;;2.70;;
40252;SDS011;25972;51.854;4.534;2023-02-18T16:09:28;21.15;;;6.53;;
40252;SDS011;25972;51.854;4.534;2023-02-18T16:11:57;11.82;;;3.17;;
40252;SDS011;25972;51.854;4.534;2023-02-18T16:14:46;8.18;;;2.03;;
40252;SDS011;25972;51.854;4.534;2023-02-18T16:17:17;10.63;;;2.97;;
40252;SDS011;25972;51.854;4.534;2023-02-18T16:19:59;18.90;;;3.92;;
40252;SDS011;25972;51.854;4.534;2023-02-18T16:25:01;23.58;;;3.22;;
40252;SDS011;25972;51.854;4.534;2023-02-18T16:27:45;5.35;;;1.42;;
40252;SDS011;25972;51.854;4.534;2023-02-18T16:30:15;21.58;;;2.70;;
40252;SDS011;25972;51.854;4.534;2023-02-18T16:32:48;20.25;;;3.70;;
40252;SDS011;25972;51.854;4.534;2023-02-18T16:35:16;25.52;;;3.75;;
40252;SDS011;25972;51.854;4.534;2023-02-18T16:37:43;20.38;;;3.80;;
40252;SDS011;25972;51.854;4.534;2023-02-18T16:42:40;22.05;;;4.07;;
40252;SDS011;25972;51.854;4.534;2023-02-18T16:45:10;23.30;;;5.07;;
40252;SDS011;25972;51.854;4.534;2023-02-18T16:47:37;27.20;;;7.90;;
40252;SDS011;25972;51.854;4.534;2023-02-18T16:50:04;22.80;;;7.70;;
40252;SDS011;25972;51.854;4.534;2023-02-18T16:52:30;23.33;;;5.55;;
40252;SDS011;25972;51.854;4.534;2023-02-18T16:54:56;10.95;;;3.03;;
40252;SDS011;25972;51.854;4.534;2023-02-18T16:57:22;10.43;;;2.92;;
40252;SDS011;25972;51.854;4.534;2023-02-18T16:59:48;22.70;;;5.60;;
40252;SDS011;25972;51.854;4.534;2023-02-18T17:02:16;30.20;;;6.47;;
40252;SDS011;25972;51.854;4.534;2023-02-18T17:04:45;32.53;;;6.93;;
40252;SDS011;25972;51.854;4.534;2023-02-18T17:07:11;26.85;;;5.25;;
40252;SDS011;25972;51.854;4.534;2023-02-18T17:09:37;22.98;;;5.60;;
40252;SDS011;25972;51.854;4.534;2023-02-18T17:12:03;26.52;;;4.78;;
40252;SDS011;25972;51.854;4.534;2023-02-18T17:14:29;18.73;;;4.03;;
40252;SDS011;25972;51.854;4.534;2023-02-18T17:16:55;7.88;;;2.30;;
40252;SDS011;25972;51.854;4.534;2023-02-18T17:19:21;12.63;;;3.22;;
40252;SDS011;25972;51.854;4.534;2023-02-18T17:21:47;21.42;;;5.28;;
40252;SDS011;25972;51.854;4.534;2023-02-18T17:24:14;23.42;;;4.07;;
40252;SDS011;25972;51.854;4.534;2023-02-18T17:26:41;25.60;;;4.78;;
40252;SDS011;25972;51.854;4.534;2023-02-18T17:29:08;22.85;;;6.20;;
40252;SDS011;25972;51.854;4.534;2023-02-18T17:31:41;18.30;;;5.18;;
40252;SDS011;25972;51.854;4.534;2023-02-18T17:34:31;19.58;;;3.72;;
40252;SDS011;25972;51.854;4.534;2023-02-18T17:37:11;21.95;;;3.53;;
40252;SDS011;25972;51.854;4.534;2023-02-18T17:39:46;7.10;;;2.40;;
40252;SDS011;25972;51.854;4.534;2023-02-18T17:42:17;14.95;;;3.42;;
40252;SDS011;25972;51.854;4.534;2023-02-18T17:44:46;16.48;;;3.28;;
40252;SDS011;25972;51.854;4.534;2023-02-18T17:47:22;9.18;;;3.50;;
40252;SDS011;25972;51.854;4.534;2023-02-18T17:49:59;14.77;;;3.25;;
40252;SDS011;25972;51.854;4.534;2023-02-18T17:52:31;24.52;;;4.93;;
40252;SDS011;25972;51.854;4.534;2023-02-18T17:55:20;16.77;;;3.33;;